sensor_id;sensor_type;location;lat;lon;timestamp;P1;durP1;ratioP1;P2;durP2;ratioP2
57465;SDS011;67033;44.984;20.068;2023-03-31T00:00:51;11.05;;;6.07;;
57465;SDS011;67033;44.984;20.068;2023-03-31T00:03:18;11.95;;;5.95;;
57465;SDS011;67033;44.984;20.068;2023-03-31T00:05:48;12.82;;;5.15;;
57465;SDS011;67033;44.984;20.068;2023-03-31T00:10:44;8.48;;;4.50;;
57465;SDS011;67033;44.984;20.068;2023-03-31T00:13:12;17.08;;;4.97;;
57465;SDS011;67033;44.984;20.068;2023-03-31T00:15:38;11.80;;;4.22;;
57465;SDS011;67033;44.984;20.068;2023-03-31T00:18:05;8.15;;;3.78;;
57465;SDS011;67033;44.984;20.068;2023-03-31T00:20:31;6.85;;;3.95;;
57465;SDS011;67033;44.984;20.068;2023-03-31T00:23:02;11.32;;;4.10;;
57465;SDS011;67033;44.984;20.068;2023-03-31T00:25:31;9.33;;;3.77;;
57465;SDS011;67033;44.984;20.068;2023-03-31T00:27:56;7.07;;;3.33;;
57465;SDS011;67033;44.984;20.068;2023-03-31T00:30:22;9.05;;;3.25;;
57465;SDS011;67033;44.984;20.068;2023-03-31T00:32:48;11.05;;;3.55;;
57465;SDS011;67033;44.984;20.068;2023-03-31T00:35:14;8.50;;;3.65;;
57465;SDS011;67033;44.984;20.068;2023-03-31T00:37:40;6.97;;;3.13;;
57465;SDS011;67033;44.984;20.068;2023-03-31T00:40:07;7.20;;;3.10;;
57465;SDS011;67033;44.984;20.068;2023-03-31T00:42:38;6.68;;;2.95;;
57465;SDS011;67033;44.984;20.068;2023-03-31T00:45:27;7.82;;;3.45;;
57465;SDS011;67033;44.984;20.068;2023-03-31T00:50:21;7.50;;;2.92;;
57465;SDS011;67033;44.984;20.068;2023-03-31T00:53:01;10.13;;;3.03;;
57465;SDS011;67033;44.984;20.068;2023-03-31T00:55:36;9.15;;;3.33;;
57465;SDS011;67033;44.984;20.068;2023-03-31T00:58:06;9.57;;;3.20;;
57465;SDS011;67033;44.984;20.068;2023-03-31T01:00:33;6.60;;;2.53;;
57465;SDS011;67033;44.984;20.068;2023-03-31T01:03:00;10.20;;;2.65;;
57465;SDS011;67033;44.984;20.068;2023-03-31T01:07:58;8.23;;;2.42;;
57465;SDS011;67033;44.984;20.068;2023-03-31T01:10:26;4.20;;;2.20;;
57465;SDS011;67033;44.984;20.068;2023-03-31T01:12:54;8.52;;;3.17;;
57465;SDS011;67033;44.984;20.068;2023-03-31T01:15:21;10.45;;;2.40;;
57465;SDS011;67033;44.984;20.068;2023-03-31T01:17:47;7.20;;;2.10;;
57465;SDS011;67033;44.984;20.068;2023-03-31T01:24:04;9.15;;;2.17;;
57465;SDS011;67033;44.984;20.068;2023-03-31T01:26:05;6.05;;;1.85;;
57465;SDS011;67033;44.984;20.068;2023-03-31T01:42:38;4.32;;;2.08;;
57465;SDS011;67033;44.984;20.068;2023-03-31T01:45:17;3.83;;;1.75;;
57465;SDS011;67033;44.984;20.068;2023-03-31T01:48:06;7.65;;;2.10;;
57465;SDS011;67033;44.984;20.068;2023-03-31T01:50:47;5.85;;;1.88;;
57465;SDS011;67033;44.984;20.068;2023-03-31T01:53:35;5.60;;;2.13;;
57465;SDS011;67033;44.984;20.068;2023-03-31T01:59:00;11.38;;;2.35;;
57465;SDS011;67033;44.984;20.068;2023-03-31T02:01:40;5.43;;;2.08;;
57465;SDS011;67033;44.984;20.068;2023-03-31T02:04:15;8.40;;;2.20;;
57465;SDS011;67033;44.984;20.068;2023-03-31T02:06:57;9.32;;;2.15;;
57465;SDS011;67033;44.984;20.068;2023-03-31T02:09:32;6.00;;;2.08;;
57465;SDS011;67033;44.984;20.068;2023-03-31T02:12:03;3.90;;;1.85;;
57465;SDS011;67033;44.984;20.068;2023-03-31T02:14:32;7.60;;;2.28;;
57465;SDS011;67033;44.984;20.068;2023-03-31T02:17:00;7.05;;;2.17;;
57465;SDS011;67033;44.984;20.068;2023-03-31T02:19:32;3.53;;;1.63;;
57465;SDS011;67033;44.984;20.068;2023-03-31T02:22:03;6.53;;;2.10;;
57465;SDS011;67033;44.984;20.068;2023-03-31T02:24:32;4.03;;;1.93;;
57465;SDS011;67033;44.984;20.068;2023-03-31T02:27:09;8.90;;;1.52;;
57465;SDS011;67033;44.984;20.068;2023-03-31T02:29:47;6.93;;;1.70;;
57465;SDS011;67033;44.984;20.068;2023-03-31T02:32:21;9.48;;;2.45;;
57465;SDS011;67033;44.984;20.068;2023-03-31T02:34:50;4.32;;;1.80;;
57465;SDS011;67033;44.984;20.068;2023-03-31T02:37:16;5.20;;;2.13;;
57465;SDS011;67033;44.984;20.068;2023-03-31T02:39:43;6.75;;;1.40;;
57465;SDS011;67033;44.984;20.068;2023-03-31T02:44:38;7.03;;;1.80;;
57465;SDS011;67033;44.984;20.068;2023-03-31T02:47:07;5.50;;;1.70;;
57465;SDS011;67033;44.984;20.068;2023-03-31T02:49:36;5.68;;;1.98;;
57465;SDS011;67033;44.984;20.068;2023-03-31T03:14:54;6.50;;;1.80;;
57465;SDS011;67033;44.984;20.068;2023-03-31T03:17:40;5.18;;;1.30;;
57465;SDS011;67033;44.984;20.068;2023-03-31T03:20:09;6.82;;;1.60;;
57465;SDS011;67033;44.984;20.068;2023-03-31T03:22:36;9.05;;;2.03;;
57465;SDS011;67033;44.984;20.068;2023-03-31T03:25:04;7.10;;;2.08;;
57465;SDS011;67033;44.984;20.068;2023-03-31T03:27:34;18.30;;;1.95;;
57465;SDS011;67033;44.984;20.068;2023-03-31T03:30:01;6.20;;;1.63;;
57465;SDS011;67033;44.984;20.068;2023-03-31T03:32:29;7.13;;;1.70;;
57465;SDS011;67033;44.984;20.068;2023-03-31T03:34:55;7.28;;;2.00;;
57465;SDS011;67033;44.984;20.068;2023-03-31T03:37:21;8.05;;;2.13;;
57465;SDS011;67033;44.984;20.068;2023-03-31T03:39:47;7.30;;;1.77;;
57465;SDS011;67033;44.984;20.068;2023-03-31T03:42:12;7.18;;;1.75;;
57465;SDS011;67033;44.984;20.068;2023-03-31T03:44:38;9.07;;;1.80;;
57465;SDS011;67033;44.984;20.068;2023-03-31T03:47:04;6.43;;;1.65;;
57465;SDS011;67033;44.984;20.068;2023-03-31T03:49:30;5.82;;;1.80;;
57465;SDS011;67033;44.984;20.068;2023-03-31T03:51:56;9.95;;;1.90;;
57465;SDS011;67033;44.984;20.068;2023-03-31T03:54:22;6.32;;;1.88;;
57465;SDS011;67033;44.984;20.068;2023-03-31T03:56:48;7.93;;;1.83;;
57465;SDS011;67033;44.984;20.068;2023-03-31T03:59:14;8.27;;;2.20;;
57465;SDS011;67033;44.984;20.068;2023-03-31T04:01:40;7.07;;;2.95;;
57465;SDS011;67033;44.984;20.068;2023-03-31T04:04:05;16.60;;;3.25;;
57465;SDS011;67033;44.984;20.068;2023-03-31T04:06:31;5.00;;;2.20;;
57465;SDS011;67033;44.984;20.068;2023-03-31T04:08:57;5.50;;;2.45;;
57465;SDS011;67033;44.984;20.068;2023-03-31T04:11:23;6.00;;;1.92;;
57465;SDS011;67033;44.984;20.068;2023-03-31T04:13:50;10.20;;;2.60;;
57465;SDS011;67033;44.984;20.068;2023-03-31T04:16:16;7.80;;;2.40;;
57465;SDS011;67033;44.984;20.068;2023-03-31T04:18:42;14.38;;;4.55;;
57465;SDS011;67033;44.984;20.068;2023-03-31T04:21:13;12.88;;;5.75;;
57465;SDS011;67033;44.984;20.068;2023-03-31T04:23:47;12.93;;;6.78;;
57465;SDS011;67033;44.984;20.068;2023-03-31T04:26:29;18.70;;;6.93;;
57465;SDS011;67033;44.984;20.068;2023-03-31T04:29:10;13.85;;;5.90;;
57465;SDS011;67033;44.984;20.068;2023-03-31T04:31:46;17.98;;;5.35;;
57465;SDS011;67033;44.984;20.068;2023-03-31T04:34:14;22.55;;;4.78;;
57465;SDS011;67033;44.984;20.068;2023-03-31T04:36:41;10.15;;;3.28;;
57465;SDS011;67033;44.984;20.068;2023-03-31T04:39:12;14.15;;;3.47;;
57465;SDS011;67033;44.984;20.068;2023-03-31T04:41:38;11.95;;;3.38;;
57465;SDS011;67033;44.984;20.068;2023-03-31T04:44:04;9.63;;;2.90;;
57465;SDS011;67033;44.984;20.068;2023-03-31T04:46:31;9.52;;;2.50;;
57465;SDS011;67033;44.984;20.068;2023-03-31T04:48:58;9.30;;;2.22;;
57465;SDS011;67033;44.984;20.068;2023-03-31T04:51:25;12.27;;;2.92;;
57465;SDS011;67033;44.984;20.068;2023-03-31T04:53:51;14.82;;;2.80;;
57465;SDS011;67033;44.984;20.068;2023-03-31T04:56:17;13.13;;;2.85;;
57465;SDS011;67033;44.984;20.068;2023-03-31T04:58:43;12.80;;;3.42;;
57465;SDS011;67033;44.984;20.068;2023-03-31T05:01:09;12.65;;;3.33;;
57465;SDS011;67033;44.984;20.068;2023-03-31T05:03:37;8.90;;;2.83;;
57465;SDS011;67033;44.984;20.068;2023-03-31T05:06:04;12.65;;;3.17;;
57465;SDS011;67033;44.984;20.068;2023-03-31T05:08:30;21.23;;;3.80;;
57465;SDS011;67033;44.984;20.068;2023-03-31T05:10:56;20.20;;;4.03;;
57465;SDS011;67033;44.984;20.068;2023-03-31T05:13:22;19.50;;;3.97;;
57465;SDS011;67033;44.984;20.068;2023-03-31T05:15:48;17.98;;;3.10;;
57465;SDS011;67033;44.984;20.068;2023-03-31T05:18:16;24.00;;;3.80;;
57465;SDS011;67033;44.984;20.068;2023-03-31T05:20:42;17.90;;;3.38;;
57465;SDS011;67033;44.984;20.068;2023-03-31T05:23:07;17.67;;;3.53;;
57465;SDS011;67033;44.984;20.068;2023-03-31T05:25:33;9.82;;;3.25;;
57465;SDS011;67033;44.984;20.068;2023-03-31T05:27:59;12.48;;;4.38;;
57465;SDS011;67033;44.984;20.068;2023-03-31T05:30:25;21.63;;;5.60;;
57465;SDS011;67033;44.984;20.068;2023-03-31T05:32:51;26.42;;;5.40;;
57465;SDS011;67033;44.984;20.068;2023-03-31T05:35:17;16.58;;;4.60;;
57465;SDS011;67033;44.984;20.068;2023-03-31T05:37:43;19.02;;;4.07;;
57465;SDS011;67033;44.984;20.068;2023-03-31T05:40:09;16.92;;;4.22;;
57465;SDS011;67033;44.984;20.068;2023-03-31T05:42:36;7.93;;;3.00;;
57465;SDS011;67033;44.984;20.068;2023-03-31T05:45:02;9.98;;;3.55;;
57465;SDS011;67033;44.984;20.068;2023-03-31T05:47:29;17.05;;;2.72;;
57465;SDS011;67033;44.984;20.068;2023-03-31T05:49:55;13.85;;;3.00;;
57465;SDS011;67033;44.984;20.068;2023-03-31T05:52:20;11.85;;;3.67;;
57465;SDS011;67033;44.984;20.068;2023-03-31T05:54:46;11.55;;;3.38;;
57465;SDS011;67033;44.984;20.068;2023-03-31T05:57:12;17.13;;;3.80;;
57465;SDS011;67033;44.984;20.068;2023-03-31T05:59:38;23.77;;;4.63;;
57465;SDS011;67033;44.984;20.068;2023-03-31T06:02:06;24.05;;;4.85;;
57465;SDS011;67033;44.984;20.068;2023-03-31T06:04:33;119.75;;;33.45;;
57465;SDS011;67033;44.984;20.068;2023-03-31T06:06:59;225.25;;;70.10;;
57465;SDS011;67033;44.984;20.068;2023-03-31T06:09:25;199.65;;;64.60;;
57465;SDS011;67033;44.984;20.068;2023-03-31T06:11:52;148.18;;;48.90;;
57465;SDS011;67033;44.984;20.068;2023-03-31T06:14:18;90.15;;;24.52;;
57465;SDS011;67033;44.984;20.068;2023-03-31T06:16:44;55.92;;;16.27;;
57465;SDS011;67033;44.984;20.068;2023-03-31T06:19:11;43.28;;;12.82;;
57465;SDS011;67033;44.984;20.068;2023-03-31T06:21:37;27.17;;;7.25;;
57465;SDS011;67033;44.984;20.068;2023-03-31T06:24:03;31.60;;;4.70;;
57465;SDS011;67033;44.984;20.068;2023-03-31T06:26:30;30.95;;;4.15;;
57465;SDS011;67033;44.984;20.068;2023-03-31T06:28:55;13.45;;;3.30;;
57465;SDS011;67033;44.984;20.068;2023-03-31T06:31:22;11.40;;;2.75;;
57465;SDS011;67033;44.984;20.068;2023-03-31T06:33:49;13.23;;;2.45;;
57465;SDS011;67033;44.984;20.068;2023-03-31T06:36:17;14.20;;;3.05;;
57465;SDS011;67033;44.984;20.068;2023-03-31T06:38:44;11.52;;;2.40;;
57465;SDS011;67033;44.984;20.068;2023-03-31T06:41:11;9.32;;;3.40;;
57465;SDS011;67033;44.984;20.068;2023-03-31T06:43:38;10.82;;;3.42;;
57465;SDS011;67033;44.984;20.068;2023-03-31T06:46:04;7.30;;;2.80;;
57465;SDS011;67033;44.984;20.068;2023-03-31T06:48:33;12.10;;;2.73;;
57465;SDS011;67033;44.984;20.068;2023-03-31T06:50:59;4.68;;;2.05;;
57465;SDS011;67033;44.984;20.068;2023-03-31T06:53:27;5.07;;;1.67;;
57465;SDS011;67033;44.984;20.068;2023-03-31T06:55:53;10.40;;;2.50;;
57465;SDS011;67033;44.984;20.068;2023-03-31T06:58:19;13.25;;;3.00;;
57465;SDS011;67033;44.984;20.068;2023-03-31T07:00:45;14.05;;;3.15;;
57465;SDS011;67033;44.984;20.068;2023-03-31T07:03:11;9.05;;;2.50;;
57465;SDS011;67033;44.984;20.068;2023-03-31T07:05:38;9.43;;;2.47;;
57465;SDS011;67033;44.984;20.068;2023-03-31T07:08:05;7.60;;;2.15;;
57465;SDS011;67033;44.984;20.068;2023-03-31T07:10:32;8.75;;;2.83;;
57465;SDS011;67033;44.984;20.068;2023-03-31T07:12:58;7.72;;;1.92;;
57465;SDS011;67033;44.984;20.068;2023-03-31T07:15:24;6.07;;;1.65;;
57465;SDS011;67033;44.984;20.068;2023-03-31T07:17:54;7.30;;;2.05;;
57465;SDS011;67033;44.984;20.068;2023-03-31T07:20:26;9.23;;;2.10;;
57465;SDS011;67033;44.984;20.068;2023-03-31T07:22:53;6.82;;;1.95;;
57465;SDS011;67033;44.984;20.068;2023-03-31T07:25:19;6.80;;;2.15;;
57465;SDS011;67033;44.984;20.068;2023-03-31T07:27:44;10.07;;;2.20;;
57465;SDS011;67033;44.984;20.068;2023-03-31T07:30:13;13.40;;;2.47;;
57465;SDS011;67033;44.984;20.068;2023-03-31T07:32:40;9.57;;;2.40;;
57465;SDS011;67033;44.984;20.068;2023-03-31T07:35:07;8.93;;;2.20;;
57465;SDS011;67033;44.984;20.068;2023-03-31T07:37:38;9.85;;;2.05;;
57465;SDS011;67033;44.984;20.068;2023-03-31T07:40:06;9.68;;;2.20;;
57465;SDS011;67033;44.984;20.068;2023-03-31T07:42:33;8.35;;;1.90;;
57465;SDS011;67033;44.984;20.068;2023-03-31T07:45:00;8.48;;;2.55;;
57465;SDS011;67033;44.984;20.068;2023-03-31T07:47:26;5.22;;;1.95;;
57465;SDS011;67033;44.984;20.068;2023-03-31T07:49:53;8.60;;;2.22;;
57465;SDS011;67033;44.984;20.068;2023-03-31T07:52:19;8.88;;;2.20;;
57465;SDS011;67033;44.984;20.068;2023-03-31T07:54:45;6.82;;;1.98;;
57465;SDS011;67033;44.984;20.068;2023-03-31T07:57:12;7.55;;;2.60;;
57465;SDS011;67033;44.984;20.068;2023-03-31T07:59:41;6.47;;;2.20;;
57465;SDS011;67033;44.984;20.068;2023-03-31T08:02:10;7.60;;;2.13;;
57465;SDS011;67033;44.984;20.068;2023-03-31T08:04:37;5.03;;;1.88;;
57465;SDS011;67033;44.984;20.068;2023-03-31T08:07:06;7.07;;;2.50;;
57465;SDS011;67033;44.984;20.068;2023-03-31T08:09:33;8.25;;;1.60;;
57465;SDS011;67033;44.984;20.068;2023-03-31T08:11:59;8.95;;;1.98;;
57465;SDS011;67033;44.984;20.068;2023-03-31T08:14:25;6.70;;;1.80;;
57465;SDS011;67033;44.984;20.068;2023-03-31T08:16:51;10.63;;;1.90;;
57465;SDS011;67033;44.984;20.068;2023-03-31T08:19:19;4.30;;;1.55;;
57465;SDS011;67033;44.984;20.068;2023-03-31T08:21:46;5.93;;;1.98;;
57465;SDS011;67033;44.984;20.068;2023-03-31T08:24:12;4.50;;;1.58;;
57465;SDS011;67033;44.984;20.068;2023-03-31T08:26:39;13.05;;;2.72;;
57465;SDS011;67033;44.984;20.068;2023-03-31T08:29:05;6.00;;;2.45;;
57465;SDS011;67033;44.984;20.068;2023-03-31T08:31:32;9.65;;;2.33;;
57465;SDS011;67033;44.984;20.068;2023-03-31T08:33:58;11.23;;;1.80;;
57465;SDS011;67033;44.984;20.068;2023-03-31T08:36:24;7.18;;;1.67;;
57465;SDS011;67033;44.984;20.068;2023-03-31T08:38:51;4.38;;;1.55;;
57465;SDS011;67033;44.984;20.068;2023-03-31T08:44:33;8.10;;;1.65;;
57465;SDS011;67033;44.984;20.068;2023-03-31T08:46:57;5.22;;;2.03;;
57465;SDS011;67033;44.984;20.068;2023-03-31T08:51:57;6.38;;;1.30;;
57465;SDS011;67033;44.984;20.068;2023-03-31T08:54:34;5.35;;;1.30;;
57465;SDS011;67033;44.984;20.068;2023-03-31T08:59:36;4.15;;;1.60;;
57465;SDS011;67033;44.984;20.068;2023-03-31T09:04:53;7.30;;;1.48;;
57465;SDS011;67033;44.984;20.068;2023-03-31T09:12:59;6.07;;;1.40;;
57465;SDS011;67033;44.984;20.068;2023-03-31T09:15:39;4.68;;;1.58;;
57465;SDS011;67033;44.984;20.068;2023-03-31T09:20:45;3.55;;;1.60;;
57465;SDS011;67033;44.984;20.068;2023-03-31T09:25:44;4.57;;;1.17;;
57465;SDS011;67033;44.984;20.068;2023-03-31T09:28:21;4.38;;;1.50;;
57465;SDS011;67033;44.984;20.068;2023-03-31T09:30:52;8.00;;;1.77;;
57465;SDS011;67033;44.984;20.068;2023-03-31T09:33:29;9.25;;;2.30;;
57465;SDS011;67033;44.984;20.068;2023-03-31T09:35:58;3.72;;;1.35;;
57465;SDS011;67033;44.984;20.068;2023-03-31T09:38:32;7.93;;;1.58;;
57465;SDS011;67033;44.984;20.068;2023-03-31T09:41:00;8.27;;;1.70;;
57465;SDS011;67033;44.984;20.068;2023-03-31T09:43:28;9.43;;;1.95;;
57465;SDS011;67033;44.984;20.068;2023-03-31T09:45:55;8.45;;;1.48;;
57465;SDS011;67033;44.984;20.068;2023-03-31T09:48:22;5.72;;;1.60;;
57465;SDS011;67033;44.984;20.068;2023-03-31T09:50:53;5.38;;;1.63;;
57465;SDS011;67033;44.984;20.068;2023-03-31T09:53:31;2.92;;;1.33;;
57465;SDS011;67033;44.984;20.068;2023-03-31T09:56:05;6.05;;;1.58;;
57465;SDS011;67033;44.984;20.068;2023-03-31T09:58:41;1.73;;;1.20;;
57465;SDS011;67033;44.984;20.068;2023-03-31T10:01:11;3.15;;;1.40;;
57465;SDS011;67033;44.984;20.068;2023-03-31T10:03:46;3.95;;;1.48;;
57465;SDS011;67033;44.984;20.068;2023-03-31T10:06:15;4.30;;;1.38;;
57465;SDS011;67033;44.984;20.068;2023-03-31T10:11:27;7.03;;;1.90;;
57465;SDS011;67033;44.984;20.068;2023-03-31T10:18:54;8.65;;;2.42;;
57465;SDS011;67033;44.984;20.068;2023-03-31T10:21:42;7.70;;;2.30;;
57465;SDS011;67033;44.984;20.068;2023-03-31T10:24:11;9.52;;;2.08;;
57465;SDS011;67033;44.984;20.068;2023-03-31T10:26:42;4.15;;;1.90;;
57465;SDS011;67033;44.984;20.068;2023-03-31T10:29:11;6.47;;;2.03;;
57465;SDS011;67033;44.984;20.068;2023-03-31T10:31:39;7.20;;;2.43;;
57465;SDS011;67033;44.984;20.068;2023-03-31T10:34:06;6.93;;;2.88;;
57465;SDS011;67033;44.984;20.068;2023-03-31T10:36:36;10.38;;;2.67;;
57465;SDS011;67033;44.984;20.068;2023-03-31T10:39:04;7.15;;;2.58;;
57465;SDS011;67033;44.984;20.068;2023-03-31T10:41:31;13.85;;;2.45;;
57465;SDS011;67033;44.984;20.068;2023-03-31T10:43:58;12.35;;;2.13;;
57465;SDS011;67033;44.984;20.068;2023-03-31T10:51:48;4.93;;;1.92;;
57465;SDS011;67033;44.984;20.068;2023-03-31T10:54:22;6.65;;;1.70;;
57465;SDS011;67033;44.984;20.068;2023-03-31T10:56:52;10.32;;;1.77;;
57465;SDS011;67033;44.984;20.068;2023-03-31T11:05:48;7.13;;;1.98;;
57465;SDS011;67033;44.984;20.068;2023-03-31T11:08:04;6.75;;;1.95;;
57465;SDS011;67033;44.984;20.068;2023-03-31T11:10:47;6.53;;;1.90;;
57465;SDS011;67033;44.984;20.068;2023-03-31T11:30:45;4.70;;;1.70;;
57465;SDS011;67033;44.984;20.068;2023-03-31T11:39:23;4.30;;;1.40;;
57465;SDS011;67033;44.984;20.068;2023-03-31T11:42:08;6.75;;;1.48;;
57465;SDS011;67033;44.984;20.068;2023-03-31T11:44:50;2.10;;;1.50;;
57465;SDS011;67033;44.984;20.068;2023-03-31T11:47:23;17.52;;;3.22;;
57465;SDS011;67033;44.984;20.068;2023-03-31T11:49:56;6.97;;;1.60;;
57465;SDS011;67033;44.984;20.068;2023-03-31T11:52:29;13.18;;;3.38;;
57465;SDS011;67033;44.984;20.068;2023-03-31T11:55:00;10.63;;;3.15;;
57465;SDS011;67033;44.984;20.068;2023-03-31T11:57:43;8.13;;;2.13;;
57465;SDS011;67033;44.984;20.068;2023-03-31T12:00:26;5.65;;;1.70;;
57465;SDS011;67033;44.984;20.068;2023-03-31T12:05:52;11.18;;;2.00;;
57465;SDS011;67033;44.984;20.068;2023-03-31T12:11:34;4.13;;;1.40;;
57465;SDS011;67033;44.984;20.068;2023-03-31T12:17:04;6.13;;;1.60;;
57465;SDS011;67033;44.984;20.068;2023-03-31T12:22:31;5.28;;;1.40;;
57465;SDS011;67033;44.984;20.068;2023-03-31T12:25:03;4.45;;;1.95;;
57465;SDS011;67033;44.984;20.068;2023-03-31T12:30:15;7.95;;;1.70;;
57465;SDS011;67033;44.984;20.068;2023-03-31T12:36:07;4.97;;;1.98;;
57465;SDS011;67033;44.984;20.068;2023-03-31T12:44:29;10.73;;;2.00;;
57465;SDS011;67033;44.984;20.068;2023-03-31T12:52:11;6.15;;;1.70;;
57465;SDS011;67033;44.984;20.068;2023-03-31T12:55:46;7.03;;;1.88;;
57465;SDS011;67033;44.984;20.068;2023-03-31T13:06:07;8.77;;;2.10;;
57465;SDS011;67033;44.984;20.068;2023-03-31T13:08:54;6.75;;;1.63;;
57465;SDS011;67033;44.984;20.068;2023-03-31T13:14:02;13.75;;;3.55;;
57465;SDS011;67033;44.984;20.068;2023-03-31T13:16:35;10.25;;;2.17;;
57465;SDS011;67033;44.984;20.068;2023-03-31T13:19:02;4.80;;;1.60;;
57465;SDS011;67033;44.984;20.068;2023-03-31T13:21:28;5.90;;;2.00;;
57465;SDS011;67033;44.984;20.068;2023-03-31T13:23:58;8.85;;;2.13;;
57465;SDS011;67033;44.984;20.068;2023-03-31T13:37:22;6.45;;;2.10;;
57465;SDS011;67033;44.984;20.068;2023-03-31T13:46:03;7.93;;;1.92;;
57465;SDS011;67033;44.984;20.068;2023-03-31T13:51:20;8.60;;;2.08;;
57465;SDS011;67033;44.984;20.068;2023-03-31T14:08:04;6.68;;;1.85;;
57465;SDS011;67033;44.984;20.068;2023-03-31T14:10:39;4.43;;;1.92;;
57465;SDS011;67033;44.984;20.068;2023-03-31T14:13:10;6.63;;;1.90;;
57465;SDS011;67033;44.984;20.068;2023-03-31T14:15:51;4.18;;;1.73;;
57465;SDS011;67033;44.984;20.068;2023-03-31T14:18:26;10.43;;;2.00;;
57465;SDS011;67033;44.984;20.068;2023-03-31T14:21:03;13.40;;;2.40;;
57465;SDS011;67033;44.984;20.068;2023-03-31T14:37:23;8.50;;;2.45;;
57465;SDS011;67033;44.984;20.068;2023-03-31T14:39:53;7.40;;;2.10;;
57465;SDS011;67033;44.984;20.068;2023-03-31T14:42:38;6.00;;;2.33;;
57465;SDS011;67033;44.984;20.068;2023-03-31T14:45:15;13.77;;;2.78;;
57465;SDS011;67033;44.984;20.068;2023-03-31T14:47:56;3.88;;;2.00;;
57465;SDS011;67033;44.984;20.068;2023-03-31T14:50:28;5.50;;;1.58;;
57465;SDS011;67033;44.984;20.068;2023-03-31T14:52:56;8.48;;;2.08;;
57465;SDS011;67033;44.984;20.068;2023-03-31T14:55:24;9.48;;;2.15;;
57465;SDS011;67033;44.984;20.068;2023-03-31T14:57:52;5.95;;;1.88;;
57465;SDS011;67033;44.984;20.068;2023-03-31T15:00:24;5.97;;;2.00;;
57465;SDS011;67033;44.984;20.068;2023-03-31T15:02:54;7.20;;;2.50;;
57465;SDS011;67033;44.984;20.068;2023-03-31T15:07:56;11.07;;;2.83;;
57465;SDS011;67033;44.984;20.068;2023-03-31T15:10:23;9.23;;;1.95;;
57465;SDS011;67033;44.984;20.068;2023-03-31T15:12:53;11.40;;;2.70;;
57465;SDS011;67033;44.984;20.068;2023-03-31T15:15:19;7.63;;;2.42;;
57465;SDS011;67033;44.984;20.068;2023-03-31T15:17:46;11.85;;;2.88;;
57465;SDS011;67033;44.984;20.068;2023-03-31T15:20:29;7.00;;;2.60;;
57465;SDS011;67033;44.984;20.068;2023-03-31T15:22:57;8.57;;;2.67;;
57465;SDS011;67033;44.984;20.068;2023-03-31T15:25:28;8.35;;;2.20;;
57465;SDS011;67033;44.984;20.068;2023-03-31T15:28:02;10.98;;;2.42;;
57465;SDS011;67033;44.984;20.068;2023-03-31T15:30:34;11.48;;;2.28;;
57465;SDS011;67033;44.984;20.068;2023-03-31T15:33:00;4.32;;;1.73;;
57465;SDS011;67033;44.984;20.068;2023-03-31T15:35:30;8.27;;;2.35;;
57465;SDS011;67033;44.984;20.068;2023-03-31T15:37:59;13.18;;;3.40;;
57465;SDS011;67033;44.984;20.068;2023-03-31T15:40:28;8.15;;;2.30;;
57465;SDS011;67033;44.984;20.068;2023-03-31T15:45:37;14.47;;;5.73;;
57465;SDS011;67033;44.984;20.068;2023-03-31T15:48:18;18.52;;;4.53;;
57465;SDS011;67033;44.984;20.068;2023-03-31T15:50:58;8.73;;;2.80;;
57465;SDS011;67033;44.984;20.068;2023-03-31T15:53:44;9.48;;;2.47;;
57465;SDS011;67033;44.984;20.068;2023-03-31T15:56:33;12.95;;;3.10;;
57465;SDS011;67033;44.984;20.068;2023-03-31T15:59:22;4.80;;;2.00;;
57465;SDS011;67033;44.984;20.068;2023-03-31T16:01:49;8.40;;;3.03;;
57465;SDS011;67033;44.984;20.068;2023-03-31T16:04:16;5.75;;;1.90;;
57465;SDS011;67033;44.984;20.068;2023-03-31T16:17:44;7.00;;;2.07;;
57465;SDS011;67033;44.984;20.068;2023-03-31T16:20:18;5.70;;;2.05;;
57465;SDS011;67033;44.984;20.068;2023-03-31T16:22:47;5.97;;;2.08;;
57465;SDS011;67033;44.984;20.068;2023-03-31T16:25:17;11.63;;;2.97;;
57465;SDS011;67033;44.984;20.068;2023-03-31T16:27:50;9.50;;;2.03;;
57465;SDS011;67033;44.984;20.068;2023-03-31T16:30:34;15.63;;;3.20;;
57465;SDS011;67033;44.984;20.068;2023-03-31T16:33:03;12.88;;;2.85;;
57465;SDS011;67033;44.984;20.068;2023-03-31T16:35:35;12.05;;;2.40;;
57465;SDS011;67033;44.984;20.068;2023-03-31T16:40:30;11.45;;;2.78;;
57465;SDS011;67033;44.984;20.068;2023-03-31T16:43:09;5.75;;;2.28;;
57465;SDS011;67033;44.984;20.068;2023-03-31T16:45:36;8.85;;;2.70;;
57465;SDS011;67033;44.984;20.068;2023-03-31T16:48:02;8.95;;;2.40;;
57465;SDS011;67033;44.984;20.068;2023-03-31T16:50:28;10.10;;;2.65;;
57465;SDS011;67033;44.984;20.068;2023-03-31T16:52:55;5.07;;;2.75;;
57465;SDS011;67033;44.984;20.068;2023-03-31T16:55:21;7.65;;;2.65;;
57465;SDS011;67033;44.984;20.068;2023-03-31T16:57:46;22.60;;;11.55;;
57465;SDS011;67033;44.984;20.068;2023-03-31T17:00:12;10.98;;;5.95;;
57465;SDS011;67033;44.984;20.068;2023-03-31T17:02:39;15.60;;;4.18;;
57465;SDS011;67033;44.984;20.068;2023-03-31T17:05:04;13.02;;;4.57;;
57465;SDS011;67033;44.984;20.068;2023-03-31T17:07:30;14.75;;;4.35;;
57465;SDS011;67033;44.984;20.068;2023-03-31T17:09:57;16.17;;;4.35;;
57465;SDS011;67033;44.984;20.068;2023-03-31T17:12:23;12.52;;;4.35;;
57465;SDS011;67033;44.984;20.068;2023-03-31T17:14:49;9.90;;;4.20;;
57465;SDS011;67033;44.984;20.068;2023-03-31T17:17:15;12.05;;;4.38;;
57465;SDS011;67033;44.984;20.068;2023-03-31T17:19:41;13.05;;;4.95;;
57465;SDS011;67033;44.984;20.068;2023-03-31T17:22:07;13.68;;;4.53;;
57465;SDS011;67033;44.984;20.068;2023-03-31T17:24:33;22.25;;;4.43;;
57465;SDS011;67033;44.984;20.068;2023-03-31T17:26:59;13.02;;;4.40;;
57465;SDS011;67033;44.984;20.068;2023-03-31T17:29:25;19.38;;;6.75;;
57465;SDS011;67033;44.984;20.068;2023-03-31T17:31:52;19.58;;;7.80;;
57465;SDS011;67033;44.984;20.068;2023-03-31T17:34:18;19.10;;;5.60;;
57465;SDS011;67033;44.984;20.068;2023-03-31T17:36:45;17.92;;;5.53;;
57465;SDS011;67033;44.984;20.068;2023-03-31T17:39:11;16.65;;;6.50;;
57465;SDS011;67033;44.984;20.068;2023-03-31T17:41:37;19.42;;;7.13;;
57465;SDS011;67033;44.984;20.068;2023-03-31T17:44:03;22.65;;;7.15;;
57465;SDS011;67033;44.984;20.068;2023-03-31T17:46:31;19.38;;;6.90;;
57465;SDS011;67033;44.984;20.068;2023-03-31T17:48:58;21.33;;;7.35;;
57465;SDS011;67033;44.984;20.068;2023-03-31T17:51:24;22.92;;;7.30;;
57465;SDS011;67033;44.984;20.068;2023-03-31T17:53:51;20.42;;;7.18;;
57465;SDS011;67033;44.984;20.068;2023-03-31T17:56:17;21.08;;;7.30;;
57465;SDS011;67033;44.984;20.068;2023-03-31T17:58:44;25.55;;;7.30;;
57465;SDS011;67033;44.984;20.068;2023-03-31T18:01:10;16.95;;;7.18;;
57465;SDS011;67033;44.984;20.068;2023-03-31T18:03:37;23.92;;;7.60;;
57465;SDS011;67033;44.984;20.068;2023-03-31T18:06:04;14.48;;;6.55;;
57465;SDS011;67033;44.984;20.068;2023-03-31T18:08:31;20.23;;;6.97;;
57465;SDS011;67033;44.984;20.068;2023-03-31T18:10:59;21.63;;;7.40;;
57465;SDS011;67033;44.984;20.068;2023-03-31T18:13:26;23.90;;;8.13;;
57465;SDS011;67033;44.984;20.068;2023-03-31T18:15:53;28.35;;;7.93;;
57465;SDS011;67033;44.984;20.068;2023-03-31T18:18:19;18.10;;;7.65;;
57465;SDS011;67033;44.984;20.068;2023-03-31T18:20:47;21.55;;;7.30;;
57465;SDS011;67033;44.984;20.068;2023-03-31T18:23:13;26.75;;;7.63;;
57465;SDS011;67033;44.984;20.068;2023-03-31T18:25:41;21.45;;;7.28;;